More Magic — 2DWJ4 — position and weather

sailwx.info

Track history (hours):
 
Tides and Currents Weather Stations Pressure Air Temp Water Temp Dewpoint Dewpoint Depression Visibility Wind Speed Wind Dir Waves Ship Positions

More Magic

Last reported at 2017-Apr-25 10:43 UTC. Time now 2017-May-23 17:04 UTC.
Position N 51°40' W 008°28'.
Warning: this ship's position is 28 days out of date.

Length 20 m.

Type: Sailing vessel. MMSI: 235082545.

Date/timePositionNaut miles runAvg speedWind from/ knotsBaromVisibWave heightAir tempDewpointWater temp
2017-Apr-25 10:43N 51°40' W 008°28'5 9.9
2017-Apr-25 10:14N 51°41' W 008°21'210.2
2017-Apr-25 10:00N 51°42' W 008°17'510.0
2017-Apr-25 09:30N 51°43' W 008°09'5 9.3
2017-Apr-25 09:00N 51°43' W 008°01'4 8.9
2017-Apr-25 08:30N 51°43' W 007°54'4 8.8
2017-Apr-25 08:00N 51°42' W 007°47'4 8.8
2017-Apr-25 07:30N 51°41' W 007°40'4 8.3
2017-Apr-25 07:00N 51°40' W 007°34'149 6.5
2017-Apr-24 08:10N 50°01' W 004°38'4 9.1
2017-Apr-24 07:41N 50°02' W 004°31'2 8.9
2017-Apr-24 07:30N 50°02' W 004°29'6 8.7
2017-Apr-24 06:46N 50°03' W 004°19'2 8.5
2017-Apr-24 06:30N 50°04' W 004°16'6 8.2
2017-Apr-24 05:48N 50°05' W 004°07'3 7.9
2017-Apr-24 05:27N 50°06' W 004°03'4 7.7
2017-Apr-24 04:55N 50°07' W 003°57'3 7.4
2017-Apr-24 04:27N 50°07' W 003°51'3 7.3
2017-Apr-24 04:00N 50°08' W 003°46'4 7.1
2017-Apr-24 03:30N 50°09' W 003°41'4 7.6
2017-Apr-24 03:00N 50°10' W 003°35'4 8.4
2017-Apr-24 02:30N 50°11' W 003°29'4 8.6
2017-Apr-24 02:00N 50°13' W 003°23'5 9.0
2017-Apr-24 01:30N 50°15' W 003°17'5 9.4
2017-Apr-24 01:00N 50°17' W 003°10'5 9.8
2017-Apr-24 00:30N 50°19' W 003°03'510.0
2017-Apr-24 00:00N 50°21' W 002°56'510.0
2017-Apr-23 23:28N 50°23' W 002°48'510.0
2017-Apr-23 23:00N 50°25' W 002°42'31 9.2
2017-Apr-23 19:41N 50°34' W 001°56'1 7.2
2017-Apr-23 19:30N 50°35' W 001°54'4 7.1
2017-Apr-23 19:00N 50°36' W 001°48'3 6.8
2017-Apr-23 18:30N 50°37' W 001°43'3 6.5
2017-Apr-23 17:59N 50°38' W 001°38'4 7.2
2017-Apr-23 17:29N 50°41' W 001°35'3 5.6
2017-Apr-23 17:00N 50°43' W 001°32'3 5.2
2017-Apr-23 16:30N 50°45' W 001°31'  
2017-Apr-17 12:46N 50°39' W 001°38'2 8.4
2017-Apr-17 12:30N 50°39' W 001°41'4 8.5
2017-Apr-17 12:00N 50°40' W 001°48'4 8.2
2017-Apr-17 11:30N 50°39' W 001°54'3 5.8
2017-Apr-17 11:00N 50°42' W 001°57'2 3.2
2017-Apr-17 10:30N 50°43' W 001°59'0 0.0
2017-Apr-16 16:27N 50°43' W 001°59'2 4.1
2017-Apr-16 15:59N 50°41' W 001°57'3 6.0
2017-Apr-16 15:30N 50°39' W 001°55'  
Track history (hours):
 
Tides and Currents Weather Stations Pressure Air Temp Water Temp Dewpoint Dewpoint Depression Visibility Wind Speed Wind Dir Waves Ship Positions

More Magic

Last reported at 2017-Apr-25 10:43 UTC. Time now 2017-May-23 17:04 UTC.
Position N 51°40' W 008°28'.
Warning: this ship's position is 28 days out of date.

Length 20 m.

Type: Sailing vessel. MMSI: 235082545.

Date/timePositionNaut miles runAvg speedWind from/ knotsBaromVisibWave heightAir tempDewpointWater temp
2017-Apr-25 10:43N 51°40' W 008°28'5 9.9
2017-Apr-25 10:14N 51°41' W 008°21'210.2
2017-Apr-25 10:00N 51°42' W 008°17'510.0
2017-Apr-25 09:30N 51°43' W 008°09'5 9.3
2017-Apr-25 09:00N 51°43' W 008°01'4 8.9
2017-Apr-25 08:30N 51°43' W 007°54'4 8.8
2017-Apr-25 08:00N 51°42' W 007°47'4 8.8
2017-Apr-25 07:30N 51°41' W 007°40'4 8.3
2017-Apr-25 07:00N 51°40' W 007°34'149 6.5
2017-Apr-24 08:10N 50°01' W 004°38'4 9.1
2017-Apr-24 07:41N 50°02' W 004°31'2 8.9
2017-Apr-24 07:30N 50°02' W 004°29'6 8.7
2017-Apr-24 06:46N 50°03' W 004°19'2 8.5
2017-Apr-24 06:30N 50°04' W 004°16'6 8.2
2017-Apr-24 05:48N 50°05' W 004°07'3 7.9
2017-Apr-24 05:27N 50°06' W 004°03'4 7.7
2017-Apr-24 04:55N 50°07' W 003°57'3 7.4
2017-Apr-24 04:27N 50°07' W 003°51'3 7.3
2017-Apr-24 04:00N 50°08' W 003°46'4 7.1
2017-Apr-24 03:30N 50°09' W 003°41'4 7.6
2017-Apr-24 03:00N 50°10' W 003°35'4 8.4
2017-Apr-24 02:30N 50°11' W 003°29'4 8.6
2017-Apr-24 02:00N 50°13' W 003°23'5 9.0
2017-Apr-24 01:30N 50°15' W 003°17'5 9.4
2017-Apr-24 01:00N 50°17' W 003°10'5 9.8
2017-Apr-24 00:30N 50°19' W 003°03'510.0
2017-Apr-24 00:00N 50°21' W 002°56'510.0
2017-Apr-23 23:28N 50°23' W 002°48'510.0
2017-Apr-23 23:00N 50°25' W 002°42'31 9.2
2017-Apr-23 19:41N 50°34' W 001°56'1 7.2
2017-Apr-23 19:30N 50°35' W 001°54'4 7.1
2017-Apr-23 19:00N 50°36' W 001°48'3 6.8
2017-Apr-23 18:30N 50°37' W 001°43'3 6.5
2017-Apr-23 17:59N 50°38' W 001°38'4 7.2
2017-Apr-23 17:29N 50°41' W 001°35'3 5.6
2017-Apr-23 17:00N 50°43' W 001°32'3 5.2
2017-Apr-23 16:30N 50°45' W 001°31'  
2017-Apr-17 12:46N 50°39' W 001°38'2 8.4
2017-Apr-17 12:30N 50°39' W 001°41'4 8.5
2017-Apr-17 12:00N 50°40' W 001°48'4 8.2
2017-Apr-17 11:30N 50°39' W 001°54'3 5.8
2017-Apr-17 11:00N 50°42' W 001°57'2 3.2
2017-Apr-17 10:30N 50°43' W 001°59'0 0.0
2017-Apr-16 16:27N 50°43' W 001°59'2 4.1
2017-Apr-16 15:59N 50°41' W 001°57'3 6.0
2017-Apr-16 15:30N 50°39' W 001°55'  

Dump ship's entire track history